• Join FlightAware (Why Join?)
  • Login
  • US Flag 
03:09PM EST


 

Airport Tracker/Info


-or-


 

Live Flight TrackerFlight Track Log ✈ SWA1969 ✈ 24-Apr-2013 ✈ KMCI - KMDW

Flight Track Log - Related Links

Times and Time Zones

All times are in EDT time to prevent confusion due to time zone crossing. See the SWA1969 flight status page for this flight to view local times or setup timezone preferences in your user account.

Time Position Orientation Groundspeed Altitude Reporting Facility
EDT Latitude Longitude Course Direction KTS MPH feet Rate Location/Type
11:14AM 39.3167 -94.7000 38° Northeast 169 194 2,000  Level Kansas City TRACON
11:15AM 39.3833 -94.6333 38° Northeast 238 274 5,600 2,280 Climbing Kansas City TRACON
11:16AM 39.3842 -94.6286 77° East 227 261 6,200 3,120 Climbing Kansas City Center
11:17AM 39.4417 -94.5533 45° Northeast 264 304 9,700 3,000 Climbing Kansas City Center
11:18AM 39.5003 -94.4775 45° Northeast 310 357 12,400 2,880 Climbing Kansas City Center
11:19AM 39.5642 -94.3947 45° Northeast 335 386 15,700 2,880 Climbing Kansas City Center
11:20AM 39.6428 -94.2886 46° Northeast 366 421 18,400 2,580 Climbing Kansas City Center
11:21AM 39.7144 -94.1931 46° Northeast 383 441 21,000 2,520 Climbing Kansas City Center
11:22AM 39.8014 -94.0750 46° Northeast 404 465 23,600 2,220 Climbing Kansas City Center
11:23AM 39.8789 -93.9581 49° Northeast 426 490 25,700 1,920 Climbing Kansas City Center
11:24AM 39.9606 -93.8406 48° Northeast 438 504 27,700 1,560 Climbing Kansas City Center
11:25AM 40.0433 -93.7208 48° Northeast 446 513 29,000 600 Climbing Kansas City Center
11:26AM 40.1064 -93.5794 60° Northeast 465 535 29,000  Level Kansas City Center
11:27AM 40.1392 -93.3853 77° East 462 532 29,000  Level Kansas City Center
11:28AM 40.1661 -93.2206 78° East 465 535 29,000 480 Level Kansas City Center
11:30AM 40.2158 -92.9242 78° East 464 534 30,400 900 Climbing Chicago Center
11:31AM 40.2439 -92.7525 78° East 486 559 31,700 1,380 Climbing Chicago Center
11:31AM 40.2531 -92.7017 77° East 491 565 32,200 1,020 Climbing Kansas City Center
11:32AM 40.2958 -92.5417 71° East 487 560 33,000 360 Climbing Kansas City Center
11:33AM 40.3611 -92.3514 66° East 489 563 33,000  Level Kansas City Center
11:34AM 40.4119 -92.1806 69° East 486 559 33,000  Level Kansas City Center
11:35AM 40.4608 -92.0183 68° East 483 556 33,000  Level Kansas City Center
11:36AM 40.5094 -91.8544 69° East 483 556 33,000  Level Kansas City Center
11:37AM 40.5572 -91.6911 69° East 483 556 33,000  Level Kansas City Center
11:38AM 40.5983 -91.5597 68° East 486 559 33,000  Level Chicago Center
11:39AM 40.6383 -91.3917 73° East 485 558 33,000 -120 Level Chicago Center
11:40AM 40.6825 -91.1839 74° East 490 564 32,800 -600 Descending Chicago Center
11:41AM 40.7206 -91.0111 74° East 492 566 31,800 -1,020 Descending Chicago Center
11:42AM 40.7561 -90.8386 75° East 487 560 30,800 -900 Descending Chicago Center
11:43AM 40.7931 -90.6647 74° East 491 565 30,000 -1,200 Descending Chicago Center
11:44AM 40.8311 -90.4811 75° East 513 590 28,400 -2,040 Descending Chicago Center
11:45AM 40.8697 -90.3022 74° East 504 580 25,800 -2,160 Descending Chicago Center
11:46AM 40.9006 -90.1094 78° East 471 542 24,000 -1,920 Descending Chicago Center
11:47AM 40.8919 -89.9439 94° East 456 525 21,900 -2,340 Descending Chicago Center
11:48AM 40.8856 -89.7797 93° East 450 518 19,200 -2,520 Descending Chicago Center
11:50AM 40.9203 -89.6303 73° East 432 497 16,800 -2,040 Descending Chicago Center
11:51AM 40.9661 -89.4681 69° East 417 480 15,100 -840 Descending Chicago Center
11:52AM 41.0008 -89.3408 70° East 378 435 15,100  Level Chicago Center
11:53AM 41.0328 -89.2233 70° East 343 395 15,100 -480 Level Chicago Center
11:54AM 41.0664 -89.1067 69° East 330 380 14,200 -900 Descending Chicago Center
11:55AM 41.0958 -88.9964 70° East 323 372 13,300 -960 Descending Chicago Center
11:56AM 41.1236 -88.8894 71° East 312 359 12,300 -1,080 Descending Chicago Center
11:57AM 41.1578 -88.7675 70° East 299 344 11,100 -720 Descending Chicago Center
11:58AM 41.1842 -88.6675 71° East 294 338 10,900 -540 Descending Chicago Center
11:59AM 41.2108 -88.5672 71° East 291 335 10,100 -480 Descending Chicago Center
12:00PM 41.2533 -88.4856 55° Northeast 282 325 10,000 -660 Descending Chicago Center
12:01PM 41.3228 -88.4444 24° Northeast 276 318 8,800 -1,380 Descending Chicago Center
12:02PM 41.3914 -88.4069 22° Northeast 270 311 7,200 -1,380 Descending Chicago Center
12:03PM 41.4706 -88.3619 23° Northeast 263 303 6,000 -1,080 Descending Chicago Center
12:04PM 41.5061 -88.2839 59° Northeast 272 313 5,000 -540 Descending Chicago Center
12:05PM 41.5178 -88.1861 81° East 267 307 5,000  Level Chicago Center
12:06PM 41.5283 -88.0875 82° East 266 306 5,000  Level Chicago Center
12:07PM 41.5419 -87.9889 80° East 266 306 5,000  Level Chicago Center
12:08PM 41.5550 -87.8908 80° East 266 306 5,000  Level Chicago Center
12:09PM 41.5567 -87.8000 89° East 254 292 5,000  Level Chicago Center
12:11PM 41.5500 -87.6000 92° East 234 269 5,000  Level Chicago TRACON
12:12PM 41.5500 -87.5333 90° East 236 272 5,000 -480 Level Chicago TRACON
12:13PM 41.6000 -87.5000 26° Northeast 216 249 4,100 -840 Descending Chicago TRACON
12:14PM 41.6333 -87.5333 323° Northwest 165 190 3,400 -600 Descending Chicago TRACON
12:15PM 41.6667 -87.5833 312° West 162 186 3,000 -480 Descending Chicago TRACON
12:16PM 41.7000 -87.6167 323° Northwest 160 184 2,500 -420 Descending Chicago TRACON
12:17PM 41.7289 -87.6742 304° West 162 186 2,200 -480 Descending Chicago Center
12:18PM 41.7500 -87.7000 318° Northwest 126 145 1,500 -840 Descending Chicago TRACON